sensor_id;sensor_type;location;lat;lon;timestamp;temperature;humidity
11055;DHT22;5580;50.106;8.702;2023-06-19T00:01:15;26.60;78.50
11055;DHT22;5580;50.106;8.702;2023-06-19T00:03:40;26.70;78.90
11055;DHT22;5580;50.106;8.702;2023-06-19T00:06:06;26.70;78.70
11055;DHT22;5580;50.106;8.702;2023-06-19T00:08:32;26.80;78.50
11055;DHT22;5580;50.106;8.702;2023-06-19T00:10:57;26.70;78.30
11055;DHT22;5580;50.106;8.702;2023-06-19T00:13:23;26.70;78.80
11055;DHT22;5580;50.106;8.702;2023-06-19T00:15:49;26.60;78.40
11055;DHT22;5580;50.106;8.702;2023-06-19T00:18:14;26.50;78.60
11055;DHT22;5580;50.106;8.702;2023-06-19T00:20:41;26.50;78.70
11055;DHT22;5580;50.106;8.702;2023-06-19T00:23:10;26.40;78.70
11055;DHT22;5580;50.106;8.702;2023-06-19T00:25:39;26.40;79.20
11055;DHT22;5580;50.106;8.702;2023-06-19T00:28:05;26.40;79.30
11055;DHT22;5580;50.106;8.702;2023-06-19T00:30:37;26.40;79.70
11055;DHT22;5580;50.106;8.702;2023-06-19T00:33:02;26.30;80.10
11055;DHT22;5580;50.106;8.702;2023-06-19T00:35:28;26.20;80.80
11055;DHT22;5580;50.106;8.702;2023-06-19T00:37:54;26.20;80.60
11055;DHT22;5580;50.106;8.702;2023-06-19T00:40:33;26.20;80.60
11055;DHT22;5580;50.106;8.702;2023-06-19T00:42:59;26.20;80.80
11055;DHT22;5580;50.106;8.702;2023-06-19T00:45:25;26.10;81.20
11055;DHT22;5580;50.106;8.702;2023-06-19T00:47:52;26.10;81.40
11055;DHT22;5580;50.106;8.702;2023-06-19T00:50:19;26.10;81.30
11055;DHT22;5580;50.106;8.702;2023-06-19T00:52:45;26.00;81.10
11055;DHT22;5580;50.106;8.702;2023-06-19T00:55:10;26.00;81.40
11055;DHT22;5580;50.106;8.702;2023-06-19T00:57:36;25.90;81.50
11055;DHT22;5580;50.106;8.702;2023-06-19T01:00:03;25.90;81.80
11055;DHT22;5580;50.106;8.702;2023-06-19T01:02:33;25.80;82.20
11055;DHT22;5580;50.106;8.702;2023-06-19T01:04:59;25.70;82.30
11055;DHT22;5580;50.106;8.702;2023-06-19T01:10:27;25.80;82.00
11055;DHT22;5580;50.106;8.702;2023-06-19T01:13:00;25.80;81.80
11055;DHT22;5580;50.106;8.702;2023-06-19T01:15:27;25.80;81.90
11055;DHT22;5580;50.106;8.702;2023-06-19T01:17:56;25.80;81.80
11055;DHT22;5580;50.106;8.702;2023-06-19T01:20:23;25.90;81.60
11055;DHT22;5580;50.106;8.702;2023-06-19T01:22:49;26.00;81.60
11055;DHT22;5580;50.106;8.702;2023-06-19T01:25:14;25.90;80.60
11055;DHT22;5580;50.106;8.702;2023-06-19T01:27:41;25.90;81.00
11055;DHT22;5580;50.106;8.702;2023-06-19T01:30:09;25.90;80.60
11055;DHT22;5580;50.106;8.702;2023-06-19T01:32:55;25.70;80.40
11055;DHT22;5580;50.106;8.702;2023-06-19T01:35:25;25.70;80.40
11055;DHT22;5580;50.106;8.702;2023-06-19T01:37:52;25.70;80.60
11055;DHT22;5580;50.106;8.702;2023-06-19T01:40:19;25.80;80.50
11055;DHT22;5580;50.106;8.702;2023-06-19T01:42:47;25.80;80.80
11055;DHT22;5580;50.106;8.702;2023-06-19T01:45:13;25.80;81.60
11055;DHT22;5580;50.106;8.702;2023-06-19T01:47:39;25.80;83.50
11055;DHT22;5580;50.106;8.702;2023-06-19T01:50:05;25.70;83.00
11055;DHT22;5580;50.106;8.702;2023-06-19T01:52:31;25.70;83.40
11055;DHT22;5580;50.106;8.702;2023-06-19T01:54:57;25.70;84.00
11055;DHT22;5580;50.106;8.702;2023-06-19T01:57:22;25.80;84.20
11055;DHT22;5580;50.106;8.702;2023-06-19T01:59:48;25.80;85.50
11055;DHT22;5580;50.106;8.702;2023-06-19T02:02:13;25.80;86.30
11055;DHT22;5580;50.106;8.702;2023-06-19T02:04:39;25.90;87.00
11055;DHT22;5580;50.106;8.702;2023-06-19T02:07:05;25.90;87.60
11055;DHT22;5580;50.106;8.702;2023-06-19T02:09:30;25.90;88.00
11055;DHT22;5580;50.106;8.702;2023-06-19T02:11:56;25.90;88.30
11055;DHT22;5580;50.106;8.702;2023-06-19T02:14:21;25.80;88.90
11055;DHT22;5580;50.106;8.702;2023-06-19T02:16:47;25.80;89.50
11055;DHT22;5580;50.106;8.702;2023-06-19T02:19:13;25.80;89.70
11055;DHT22;5580;50.106;8.702;2023-06-19T02:21:38;25.80;89.90
11055;DHT22;5580;50.106;8.702;2023-06-19T02:24:04;25.80;90.00
11055;DHT22;5580;50.106;8.702;2023-06-19T02:26:31;25.80;90.00
11055;DHT22;5580;50.106;8.702;2023-06-19T02:28:56;25.80;90.00
11055;DHT22;5580;50.106;8.702;2023-06-19T02:31:22;25.80;90.10
11055;DHT22;5580;50.106;8.702;2023-06-19T02:33:48;25.70;90.20
11055;DHT22;5580;50.106;8.702;2023-06-19T02:36:14;25.70;90.30
11055;DHT22;5580;50.106;8.702;2023-06-19T02:38:47;25.60;90.40
11055;DHT22;5580;50.106;8.702;2023-06-19T02:41:13;25.60;90.50
11055;DHT22;5580;50.106;8.702;2023-06-19T02:43:42;25.60;90.60
11055;DHT22;5580;50.106;8.702;2023-06-19T02:46:08;25.50;90.40
11055;DHT22;5580;50.106;8.702;2023-06-19T02:48:34;25.50;90.30
11055;DHT22;5580;50.106;8.702;2023-06-19T02:51:01;25.50;90.20
11055;DHT22;5580;50.106;8.702;2023-06-19T02:53:27;25.50;90.20
11055;DHT22;5580;50.106;8.702;2023-06-19T02:55:52;25.40;90.30
11055;DHT22;5580;50.106;8.702;2023-06-19T02:58:18;25.40;90.30
11055;DHT22;5580;50.106;8.702;2023-06-19T03:00:45;25.30;90.40
11055;DHT22;5580;50.106;8.702;2023-06-19T03:03:10;25.20;90.40
11055;DHT22;5580;50.106;8.702;2023-06-19T03:05:37;25.20;90.40
11055;DHT22;5580;50.106;8.702;2023-06-19T03:08:03;25.20;90.40
11055;DHT22;5580;50.106;8.702;2023-06-19T03:10:29;25.20;90.40
11055;DHT22;5580;50.106;8.702;2023-06-19T03:12:54;25.20;90.40
11055;DHT22;5580;50.106;8.702;2023-06-19T03:15:20;25.20;90.40
11055;DHT22;5580;50.106;8.702;2023-06-19T03:17:46;25.20;90.40
11055;DHT22;5580;50.106;8.702;2023-06-19T03:20:12;25.10;90.30
11055;DHT22;5580;50.106;8.702;2023-06-19T03:22:41;25.10;90.40
11055;DHT22;5580;50.106;8.702;2023-06-19T03:25:07;25.00;90.30
11055;DHT22;5580;50.106;8.702;2023-06-19T03:27:33;25.00;90.20
11055;DHT22;5580;50.106;8.702;2023-06-19T03:29:59;25.00;90.20
11055;DHT22;5580;50.106;8.702;2023-06-19T03:32:25;24.90;90.00
11055;DHT22;5580;50.106;8.702;2023-06-19T03:34:50;24.90;89.90
11055;DHT22;5580;50.106;8.702;2023-06-19T03:37:16;24.90;89.70
11055;DHT22;5580;50.106;8.702;2023-06-19T03:39:42;24.90;89.60
11055;DHT22;5580;50.106;8.702;2023-06-19T03:42:08;24.90;89.50
11055;DHT22;5580;50.106;8.702;2023-06-19T03:44:33;24.80;89.40
11055;DHT22;5580;50.106;8.702;2023-06-19T03:46:59;24.80;89.50
11055;DHT22;5580;50.106;8.702;2023-06-19T03:49:25;24.80;89.60
11055;DHT22;5580;50.106;8.702;2023-06-19T03:51:51;24.80;90.10
11055;DHT22;5580;50.106;8.702;2023-06-19T03:54:16;24.80;89.40
11055;DHT22;5580;50.106;8.702;2023-06-19T03:56:42;24.80;89.20
11055;DHT22;5580;50.106;8.702;2023-06-19T03:59:08;24.70;89.10
11055;DHT22;5580;50.106;8.702;2023-06-19T04:01:33;24.70;89.30
11055;DHT22;5580;50.106;8.702;2023-06-19T04:03:59;24.70;89.30
11055;DHT22;5580;50.106;8.702;2023-06-19T04:06:24;24.70;89.40
11055;DHT22;5580;50.106;8.702;2023-06-19T04:08:52;24.70;89.50
11055;DHT22;5580;50.106;8.702;2023-06-19T04:11:17;24.80;89.70
11055;DHT22;5580;50.106;8.702;2023-06-19T04:13:43;24.70;89.80
11055;DHT22;5580;50.106;8.702;2023-06-19T04:16:09;24.70;90.20
11055;DHT22;5580;50.106;8.702;2023-06-19T04:18:34;24.60;90.00
11055;DHT22;5580;50.106;8.702;2023-06-19T04:21:00;24.50;90.10
11055;DHT22;5580;50.106;8.702;2023-06-19T04:23:26;24.50;90.20
11055;DHT22;5580;50.106;8.702;2023-06-19T04:25:51;24.50;90.40
11055;DHT22;5580;50.106;8.702;2023-06-19T04:28:17;24.50;90.60
11055;DHT22;5580;50.106;8.702;2023-06-19T04:30:42;24.40;90.90
11055;DHT22;5580;50.106;8.702;2023-06-19T04:33:08;24.40;91.60
11055;DHT22;5580;50.106;8.702;2023-06-19T04:35:34;24.40;92.20
11055;DHT22;5580;50.106;8.702;2023-06-19T04:38:05;24.30;92.40
11055;DHT22;5580;50.106;8.702;2023-06-19T04:40:31;24.30;92.90
11055;DHT22;5580;50.106;8.702;2023-06-19T04:42:58;24.30;93.20
11055;DHT22;5580;50.106;8.702;2023-06-19T04:45:24;24.30;93.40
11055;DHT22;5580;50.106;8.702;2023-06-19T04:47:50;24.40;93.50
11055;DHT22;5580;50.106;8.702;2023-06-19T04:50:15;24.40;93.50
11055;DHT22;5580;50.106;8.702;2023-06-19T04:52:42;24.40;93.60
11055;DHT22;5580;50.106;8.702;2023-06-19T04:55:08;24.30;93.60
11055;DHT22;5580;50.106;8.702;2023-06-19T04:57:37;24.40;93.70
11055;DHT22;5580;50.106;8.702;2023-06-19T05:00:04;24.30;93.60
11055;DHT22;5580;50.106;8.702;2023-06-19T05:02:32;24.40;93.60
11055;DHT22;5580;50.106;8.702;2023-06-19T05:04:57;24.40;93.60
11055;DHT22;5580;50.106;8.702;2023-06-19T05:07:23;24.40;93.60
11055;DHT22;5580;50.106;8.702;2023-06-19T05:09:48;24.40;93.60
11055;DHT22;5580;50.106;8.702;2023-06-19T05:12:14;24.30;93.50
11055;DHT22;5580;50.106;8.702;2023-06-19T05:14:40;24.30;93.50
11055;DHT22;5580;50.106;8.702;2023-06-19T05:17:06;24.30;93.50
11055;DHT22;5580;50.106;8.702;2023-06-19T05:19:31;24.40;93.50
11055;DHT22;5580;50.106;8.702;2023-06-19T05:21:57;24.40;93.50
11055;DHT22;5580;50.106;8.702;2023-06-19T05:24:22;24.40;93.50
11055;DHT22;5580;50.106;8.702;2023-06-19T05:26:48;24.40;93.50
11055;DHT22;5580;50.106;8.702;2023-06-19T05:29:13;24.50;93.50
11055;DHT22;5580;50.106;8.702;2023-06-19T05:31:39;24.50;93.50
11055;DHT22;5580;50.106;8.702;2023-06-19T05:34:05;24.50;93.50
11055;DHT22;5580;50.106;8.702;2023-06-19T05:36:30;24.60;93.50
11055;DHT22;5580;50.106;8.702;2023-06-19T05:38:56;24.80;93.50
11055;DHT22;5580;50.106;8.702;2023-06-19T05:41:21;24.80;93.40
11055;DHT22;5580;50.106;8.702;2023-06-19T05:43:47;24.90;93.40
11055;DHT22;5580;50.106;8.702;2023-06-19T05:46:13;25.00;93.30
11055;DHT22;5580;50.106;8.702;2023-06-19T05:48:38;25.10;93.30
11055;DHT22;5580;50.106;8.702;2023-06-19T05:51:04;25.10;93.30
11055;DHT22;5580;50.106;8.702;2023-06-19T05:53:29;25.30;93.30
11055;DHT22;5580;50.106;8.702;2023-06-19T05:55:57;25.30;93.30
11055;DHT22;5580;50.106;8.702;2023-06-19T05:58:23;25.40;93.10
11055;DHT22;5580;50.106;8.702;2023-06-19T06:00:51;25.50;93.00
11055;DHT22;5580;50.106;8.702;2023-06-19T06:03:25;25.40;93.00
11055;DHT22;5580;50.106;8.702;2023-06-19T06:05:51;25.60;93.00
11055;DHT22;5580;50.106;8.702;2023-06-19T06:08:17;25.60;92.90
11055;DHT22;5580;50.106;8.702;2023-06-19T06:10:43;25.60;92.90
11055;DHT22;5580;50.106;8.702;2023-06-19T06:13:09;25.70;92.90
11055;DHT22;5580;50.106;8.702;2023-06-19T06:15:34;25.80;92.90
11055;DHT22;5580;50.106;8.702;2023-06-19T06:18:00;25.80;92.80
11055;DHT22;5580;50.106;8.702;2023-06-19T06:20:26;25.90;92.80
11055;DHT22;5580;50.106;8.702;2023-06-19T06:22:53;26.00;92.70
11055;DHT22;5580;50.106;8.702;2023-06-19T06:25:18;26.10;92.60
11055;DHT22;5580;50.106;8.702;2023-06-19T06:27:45;26.20;92.60
11055;DHT22;5580;50.106;8.702;2023-06-19T06:30:11;26.30;92.70
11055;DHT22;5580;50.106;8.702;2023-06-19T06:32:37;26.20;92.60
11055;DHT22;5580;50.106;8.702;2023-06-19T06:35:03;26.30;92.60
11055;DHT22;5580;50.106;8.702;2023-06-19T06:37:29;26.20;92.60
11055;DHT22;5580;50.106;8.702;2023-06-19T06:39:55;26.20;92.60
11055;DHT22;5580;50.106;8.702;2023-06-19T06:42:21;26.20;92.70
11055;DHT22;5580;50.106;8.702;2023-06-19T06:44:46;26.20;92.80
11055;DHT22;5580;50.106;8.702;2023-06-19T06:47:12;26.30;92.70
11055;DHT22;5580;50.106;8.702;2023-06-19T06:49:38;26.20;92.60
11055;DHT22;5580;50.106;8.702;2023-06-19T06:52:04;26.20;92.60
11055;DHT22;5580;50.106;8.702;2023-06-19T06:54:30;26.20;92.70
11055;DHT22;5580;50.106;8.702;2023-06-19T06:56:55;26.20;92.80
11055;DHT22;5580;50.106;8.702;2023-06-19T06:59:24;26.20;92.70
11055;DHT22;5580;50.106;8.702;2023-06-19T07:01:50;26.30;92.70
11055;DHT22;5580;50.106;8.702;2023-06-19T07:04:16;26.40;92.60
11055;DHT22;5580;50.106;8.702;2023-06-19T07:06:41;26.40;92.60
11055;DHT22;5580;50.106;8.702;2023-06-19T07:09:07;26.40;92.50
11055;DHT22;5580;50.106;8.702;2023-06-19T07:11:33;26.50;92.70
11055;DHT22;5580;50.106;8.702;2023-06-19T07:13:58;26.60;92.90
11055;DHT22;5580;50.106;8.702;2023-06-19T07:16:24;26.60;92.70
11055;DHT22;5580;50.106;8.702;2023-06-19T07:18:49;26.70;92.60
11055;DHT22;5580;50.106;8.702;2023-06-19T07:21:15;26.80;92.60
11055;DHT22;5580;50.106;8.702;2023-06-19T07:23:42;26.80;92.40
11055;DHT22;5580;50.106;8.702;2023-06-19T07:26:10;26.90;92.50
11055;DHT22;5580;50.106;8.702;2023-06-19T07:28:36;26.90;92.10
11055;DHT22;5580;50.106;8.702;2023-06-19T07:31:02;27.00;92.50
11055;DHT22;5580;50.106;8.702;2023-06-19T07:33:29;27.10;92.50
11055;DHT22;5580;50.106;8.702;2023-06-19T07:35:55;27.20;92.20
11055;DHT22;5580;50.106;8.702;2023-06-19T07:38:21;27.20;92.10
11055;DHT22;5580;50.106;8.702;2023-06-19T07:40:47;27.10;92.00
11055;DHT22;5580;50.106;8.702;2023-06-19T07:43:12;27.20;92.10
11055;DHT22;5580;50.106;8.702;2023-06-19T07:45:38;27.20;92.40
11055;DHT22;5580;50.106;8.702;2023-06-19T07:48:04;27.20;92.10
11055;DHT22;5580;50.106;8.702;2023-06-19T07:50:29;27.20;91.80
11055;DHT22;5580;50.106;8.702;2023-06-19T07:52:55;27.30;91.80
11055;DHT22;5580;50.106;8.702;2023-06-19T07:55:20;27.20;91.70
11055;DHT22;5580;50.106;8.702;2023-06-19T07:57:46;27.30;91.90
11055;DHT22;5580;50.106;8.702;2023-06-19T08:00:12;27.30;92.00
11055;DHT22;5580;50.106;8.702;2023-06-19T08:02:41;27.30;91.80
11055;DHT22;5580;50.106;8.702;2023-06-19T08:05:08;27.40;91.80
11055;DHT22;5580;50.106;8.702;2023-06-19T08:07:35;27.40;91.80
11055;DHT22;5580;50.106;8.702;2023-06-19T08:10:01;27.50;91.70
11055;DHT22;5580;50.106;8.702;2023-06-19T08:12:26;27.60;91.70
11055;DHT22;5580;50.106;8.702;2023-06-19T08:14:52;27.60;91.70
11055;DHT22;5580;50.106;8.702;2023-06-19T08:17:17;27.60;92.00
11055;DHT22;5580;50.106;8.702;2023-06-19T08:19:43;27.70;91.80
11055;DHT22;5580;50.106;8.702;2023-06-19T08:22:09;27.70;91.60
11055;DHT22;5580;50.106;8.702;2023-06-19T08:24:36;27.70;91.60
11055;DHT22;5580;50.106;8.702;2023-06-19T08:27:02;27.70;91.70
11055;DHT22;5580;50.106;8.702;2023-06-19T08:29:28;27.60;91.70
11055;DHT22;5580;50.106;8.702;2023-06-19T08:31:53;27.60;91.60
11055;DHT22;5580;50.106;8.702;2023-06-19T08:34:19;27.60;91.70
11055;DHT22;5580;50.106;8.702;2023-06-19T08:36:44;27.70;91.70
11055;DHT22;5580;50.106;8.702;2023-06-19T08:39:10;27.70;91.80
11055;DHT22;5580;50.106;8.702;2023-06-19T08:41:37;27.80;91.50
11055;DHT22;5580;50.106;8.702;2023-06-19T08:44:03;27.80;91.50
11055;DHT22;5580;50.106;8.702;2023-06-19T08:46:29;27.80;91.70
11055;DHT22;5580;50.106;8.702;2023-06-19T08:48:55;27.80;91.70
11055;DHT22;5580;50.106;8.702;2023-06-19T08:51:21;27.80;91.80
11055;DHT22;5580;50.106;8.702;2023-06-19T08:53:48;27.90;91.50
11055;DHT22;5580;50.106;8.702;2023-06-19T08:56:18;27.90;91.90
11055;DHT22;5580;50.106;8.702;2023-06-19T08:58:43;27.90;91.80
11055;DHT22;5580;50.106;8.702;2023-06-19T09:01:09;27.90;91.90
11055;DHT22;5580;50.106;8.702;2023-06-19T09:03:35;28.00;91.90
11055;DHT22;5580;50.106;8.702;2023-06-19T09:06:07;28.00;91.70
11055;DHT22;5580;50.106;8.702;2023-06-19T09:08:33;28.00;91.60
11055;DHT22;5580;50.106;8.702;2023-06-19T09:11:03;28.00;91.70
11055;DHT22;5580;50.106;8.702;2023-06-19T09:13:30;28.00;92.10
11055;DHT22;5580;50.106;8.702;2023-06-19T09:16:07;28.00;92.20
11055;DHT22;5580;50.106;8.702;2023-06-19T09:18:47;28.10;91.90
11055;DHT22;5580;50.106;8.702;2023-06-19T09:21:21;28.10;91.90
11055;DHT22;5580;50.106;8.702;2023-06-19T09:23:50;28.20;91.70
11055;DHT22;5580;50.106;8.702;2023-06-19T09:26:19;28.20;91.50
11055;DHT22;5580;50.106;8.702;2023-06-19T09:28:45;28.10;91.60
11055;DHT22;5580;50.106;8.702;2023-06-19T09:31:12;28.10;91.70
11055;DHT22;5580;50.106;8.702;2023-06-19T09:33:39;28.10;91.70
11055;DHT22;5580;50.106;8.702;2023-06-19T09:36:05;28.10;92.20
11055;DHT22;5580;50.106;8.702;2023-06-19T09:38:34;28.20;92.20
11055;DHT22;5580;50.106;8.702;2023-06-19T09:41:04;28.20;92.40
11055;DHT22;5580;50.106;8.702;2023-06-19T09:43:36;28.30;91.90
11055;DHT22;5580;50.106;8.702;2023-06-19T09:46:03;28.30;91.70
11055;DHT22;5580;50.106;8.702;2023-06-19T09:48:31;28.30;92.20
11055;DHT22;5580;50.106;8.702;2023-06-19T09:51:21;28.20;91.70
11055;DHT22;5580;50.106;8.702;2023-06-19T09:53:49;28.30;91.90
11055;DHT22;5580;50.106;8.702;2023-06-19T09:56:17;28.30;92.20
11055;DHT22;5580;50.106;8.702;2023-06-19T09:58:47;28.30;92.10
11055;DHT22;5580;50.106;8.702;2023-06-19T10:01:15;28.40;91.90
11055;DHT22;5580;50.106;8.702;2023-06-19T10:03:44;28.40;91.70
11055;DHT22;5580;50.106;8.702;2023-06-19T10:06:14;28.40;91.50
11055;DHT22;5580;50.106;8.702;2023-06-19T10:08:42;28.30;91.50
11055;DHT22;5580;50.106;8.702;2023-06-19T10:11:12;28.30;91.40
11055;DHT22;5580;50.106;8.702;2023-06-19T10:13:40;28.20;91.20
11055;DHT22;5580;50.106;8.702;2023-06-19T10:16:07;28.20;91.30
11055;DHT22;5580;50.106;8.702;2023-06-19T10:18:47;28.30;91.80
11055;DHT22;5580;50.106;8.702;2023-06-19T10:21:21;28.30;91.40
11055;DHT22;5580;50.106;8.702;2023-06-19T10:23:54;28.30;91.10
11055;DHT22;5580;50.106;8.702;2023-06-19T10:26:32;28.30;91.20
11055;DHT22;5580;50.106;8.702;2023-06-19T10:28:58;28.30;91.40
11055;DHT22;5580;50.106;8.702;2023-06-19T10:31:24;28.30;91.20
11055;DHT22;5580;50.106;8.702;2023-06-19T10:33:50;28.40;91.20
11055;DHT22;5580;50.106;8.702;2023-06-19T10:36:22;28.30;91.00
11055;DHT22;5580;50.106;8.702;2023-06-19T10:38:48;28.30;91.00
11055;DHT22;5580;50.106;8.702;2023-06-19T10:41:22;28.30;91.10
11055;DHT22;5580;50.106;8.702;2023-06-19T10:43:56;28.20;91.00
11055;DHT22;5580;50.106;8.702;2023-06-19T10:46:23;28.30;91.00
11055;DHT22;5580;50.106;8.702;2023-06-19T10:48:52;28.20;91.30
11055;DHT22;5580;50.106;8.702;2023-06-19T10:51:23;28.20;91.40
11055;DHT22;5580;50.106;8.702;2023-06-19T10:53:49;28.20;91.30
11055;DHT22;5580;50.106;8.702;2023-06-19T10:56:14;28.20;91.50
11055;DHT22;5580;50.106;8.702;2023-06-19T10:58:40;28.10;91.50
11055;DHT22;5580;50.106;8.702;2023-06-19T11:01:06;28.20;91.30
11055;DHT22;5580;50.106;8.702;2023-06-19T11:03:32;28.10;91.40
11055;DHT22;5580;50.106;8.702;2023-06-19T11:05:57;28.10;91.50
11055;DHT22;5580;50.106;8.702;2023-06-19T11:08:23;28.10;91.60
11055;DHT22;5580;50.106;8.702;2023-06-19T11:10:49;28.10;91.70
11055;DHT22;5580;50.106;8.702;2023-06-19T11:13:19;28.10;91.90
11055;DHT22;5580;50.106;8.702;2023-06-19T11:15:45;28.10;91.90
11055;DHT22;5580;50.106;8.702;2023-06-19T11:18:15;28.10;91.90
11055;DHT22;5580;50.106;8.702;2023-06-19T11:23:10;28.00;91.70
11055;DHT22;5580;50.106;8.702;2023-06-19T11:25:40;28.00;91.80
11055;DHT22;5580;50.106;8.702;2023-06-19T11:28:16;28.00;91.90
11055;DHT22;5580;50.106;8.702;2023-06-19T11:30:48;28.00;92.00
11055;DHT22;5580;50.106;8.702;2023-06-19T11:33:21;28.00;91.90
11055;DHT22;5580;50.106;8.702;2023-06-19T11:35:51;28.00;91.70
11055;DHT22;5580;50.106;8.702;2023-06-19T11:38:22;28.00;91.70
11055;DHT22;5580;50.106;8.702;2023-06-19T11:40:48;28.10;91.80
11055;DHT22;5580;50.106;8.702;2023-06-19T11:43:30;28.10;92.20
11055;DHT22;5580;50.106;8.702;2023-06-19T11:46:03;28.10;92.30
11055;DHT22;5580;50.106;8.702;2023-06-19T11:48:29;28.10;92.80
11055;DHT22;5580;50.106;8.702;2023-06-19T11:50:55;28.10;92.10
11055;DHT22;5580;50.106;8.702;2023-06-19T11:53:21;28.10;91.80
11055;DHT22;5580;50.106;8.702;2023-06-19T11:55:47;28.20;91.50
11055;DHT22;5580;50.106;8.702;2023-06-19T11:58:13;28.20;91.30
11055;DHT22;5580;50.106;8.702;2023-06-19T12:00:41;28.30;91.20
11055;DHT22;5580;50.106;8.702;2023-06-19T12:03:07;28.20;91.10
11055;DHT22;5580;50.106;8.702;2023-06-19T12:05:33;28.30;90.90
11055;DHT22;5580;50.106;8.702;2023-06-19T12:07:59;28.30;91.10
11055;DHT22;5580;50.106;8.702;2023-06-19T12:10:28;28.30;91.30
11055;DHT22;5580;50.106;8.702;2023-06-19T12:12:53;28.30;91.50
11055;DHT22;5580;50.106;8.702;2023-06-19T12:15:19;28.30;91.60
11055;DHT22;5580;50.106;8.702;2023-06-19T12:17:46;28.30;91.60
11055;DHT22;5580;50.106;8.702;2023-06-19T12:20:12;28.30;91.60
11055;DHT22;5580;50.106;8.702;2023-06-19T12:22:39;28.40;91.50
11055;DHT22;5580;50.106;8.702;2023-06-19T12:25:05;28.40;92.00
11055;DHT22;5580;50.106;8.702;2023-06-19T12:27:31;28.40;91.70
11055;DHT22;5580;50.106;8.702;2023-06-19T12:29:56;28.50;91.80
11055;DHT22;5580;50.106;8.702;2023-06-19T12:32:22;28.50;91.50
11055;DHT22;5580;50.106;8.702;2023-06-19T12:34:49;28.50;91.30
11055;DHT22;5580;50.106;8.702;2023-06-19T12:37:16;28.50;91.20
11055;DHT22;5580;50.106;8.702;2023-06-19T12:39:44;28.60;91.50
11055;DHT22;5580;50.106;8.702;2023-06-19T12:42:10;28.50;91.30
11055;DHT22;5580;50.106;8.702;2023-06-19T12:44:38;28.50;91.30
11055;DHT22;5580;50.106;8.702;2023-06-19T12:47:04;28.50;91.10
11055;DHT22;5580;50.106;8.702;2023-06-19T12:49:30;28.50;90.90
11055;DHT22;5580;50.106;8.702;2023-06-19T12:51:56;28.50;90.80
11055;DHT22;5580;50.106;8.702;2023-06-19T12:54:22;28.50;90.70
11055;DHT22;5580;50.106;8.702;2023-06-19T12:56:48;28.50;90.70
11055;DHT22;5580;50.106;8.702;2023-06-19T12:59:14;28.60;91.00
11055;DHT22;5580;50.106;8.702;2023-06-19T13:01:41;28.60;90.80
11055;DHT22;5580;50.106;8.702;2023-06-19T13:04:06;28.60;90.80
11055;DHT22;5580;50.106;8.702;2023-06-19T13:06:32;28.50;90.60
11055;DHT22;5580;50.106;8.702;2023-06-19T13:08:58;28.60;90.60
11055;DHT22;5580;50.106;8.702;2023-06-19T13:11:23;28.50;90.50
11055;DHT22;5580;50.106;8.702;2023-06-19T13:13:49;28.50;90.60
11055;DHT22;5580;50.106;8.702;2023-06-19T13:16:14;28.50;91.00
11055;DHT22;5580;50.106;8.702;2023-06-19T13:18:41;28.50;90.60
11055;DHT22;5580;50.106;8.702;2023-06-19T13:21:07;28.50;90.40
11055;DHT22;5580;50.106;8.702;2023-06-19T13:23:33;28.50;90.50
11055;DHT22;5580;50.106;8.702;2023-06-19T13:25:58;28.60;91.20
11055;DHT22;5580;50.106;8.702;2023-06-19T13:28:24;28.60;91.00
11055;DHT22;5580;50.106;8.702;2023-06-19T13:30:50;28.60;90.40
11055;DHT22;5580;50.106;8.702;2023-06-19T13:33:16;28.60;90.30
11055;DHT22;5580;50.106;8.702;2023-06-19T13:35:42;28.60;90.30
11055;DHT22;5580;50.106;8.702;2023-06-19T13:38:07;28.60;90.00
11055;DHT22;5580;50.106;8.702;2023-06-19T13:40:33;28.60;89.30
11055;DHT22;5580;50.106;8.702;2023-06-19T13:42:59;28.60;89.10
11055;DHT22;5580;50.106;8.702;2023-06-19T13:45:25;28.50;88.80
11055;DHT22;5580;50.106;8.702;2023-06-19T13:47:51;28.50;88.80
11055;DHT22;5580;50.106;8.702;2023-06-19T13:50:17;28.50;88.90
11055;DHT22;5580;50.106;8.702;2023-06-19T13:52:46;28.60;89.20
11055;DHT22;5580;50.106;8.702;2023-06-19T13:55:12;28.60;88.90
11055;DHT22;5580;50.106;8.702;2023-06-19T13:57:40;28.60;89.80
11055;DHT22;5580;50.106;8.702;2023-06-19T14:00:07;28.60;88.80
11055;DHT22;5580;50.106;8.702;2023-06-19T14:02:34;28.60;88.50
11055;DHT22;5580;50.106;8.702;2023-06-19T14:04:59;28.60;88.20
11055;DHT22;5580;50.106;8.702;2023-06-19T14:07:25;28.60;87.80
11055;DHT22;5580;50.106;8.702;2023-06-19T14:09:52;28.70;88.40
11055;DHT22;5580;50.106;8.702;2023-06-19T14:12:19;28.70;89.00
11055;DHT22;5580;50.106;8.702;2023-06-19T14:14:44;28.60;87.30
11055;DHT22;5580;50.106;8.702;2023-06-19T14:17:10;28.60;87.50
11055;DHT22;5580;50.106;8.702;2023-06-19T14:19:35;28.60;87.50
11055;DHT22;5580;50.106;8.702;2023-06-19T14:22:01;28.60;87.20
11055;DHT22;5580;50.106;8.702;2023-06-19T14:24:27;28.60;88.00
11055;DHT22;5580;50.106;8.702;2023-06-19T14:26:53;28.70;88.20
11055;DHT22;5580;50.106;8.702;2023-06-19T14:29:18;28.60;87.70
11055;DHT22;5580;50.106;8.702;2023-06-19T14:31:46;28.70;86.40
11055;DHT22;5580;50.106;8.702;2023-06-19T14:34:11;28.60;86.30
11055;DHT22;5580;50.106;8.702;2023-06-19T14:36:38;28.70;85.50
11055;DHT22;5580;50.106;8.702;2023-06-19T14:39:04;28.70;84.50
11055;DHT22;5580;50.106;8.702;2023-06-19T14:41:29;28.60;84.70
11055;DHT22;5580;50.106;8.702;2023-06-19T14:43:55;28.70;84.00
11055;DHT22;5580;50.106;8.702;2023-06-19T14:46:20;28.70;84.20
11055;DHT22;5580;50.106;8.702;2023-06-19T14:48:46;28.70;84.10
11055;DHT22;5580;50.106;8.702;2023-06-19T14:51:12;28.60;83.30
11055;DHT22;5580;50.106;8.702;2023-06-19T14:53:38;28.60;83.10
11055;DHT22;5580;50.106;8.702;2023-06-19T14:56:03;28.70;82.50
11055;DHT22;5580;50.106;8.702;2023-06-19T14:58:29;28.70;81.60
11055;DHT22;5580;50.106;8.702;2023-06-19T15:00:55;28.70;82.20
11055;DHT22;5580;50.106;8.702;2023-06-19T15:03:21;28.70;82.10
11055;DHT22;5580;50.106;8.702;2023-06-19T15:05:47;28.70;81.20
11055;DHT22;5580;50.106;8.702;2023-06-19T15:08:12;28.70;81.10
11055;DHT22;5580;50.106;8.702;2023-06-19T15:10:38;28.80;81.10
11055;DHT22;5580;50.106;8.702;2023-06-19T15:13:03;28.70;80.80
11055;DHT22;5580;50.106;8.702;2023-06-19T15:15:30;28.80;81.80
11055;DHT22;5580;50.106;8.702;2023-06-19T15:17:56;28.90;82.20
11055;DHT22;5580;50.106;8.702;2023-06-19T15:20:22;28.90;83.00
11055;DHT22;5580;50.106;8.702;2023-06-19T15:22:48;28.90;82.40
11055;DHT22;5580;50.106;8.702;2023-06-19T15:25:14;28.90;81.80
11055;DHT22;5580;50.106;8.702;2023-06-19T15:27:39;28.90;82.70
11055;DHT22;5580;50.106;8.702;2023-06-19T15:30:06;28.90;83.00
11055;DHT22;5580;50.106;8.702;2023-06-19T15:32:31;29.00;82.30
11055;DHT22;5580;50.106;8.702;2023-06-19T15:34:57;29.00;81.50
11055;DHT22;5580;50.106;8.702;2023-06-19T15:37:23;29.00;82.10
11055;DHT22;5580;50.106;8.702;2023-06-19T15:39:48;28.90;81.50
11055;DHT22;5580;50.106;8.702;2023-06-19T15:42:14;28.90;81.20
11055;DHT22;5580;50.106;8.702;2023-06-19T15:44:39;28.90;80.60
11055;DHT22;5580;50.106;8.702;2023-06-19T15:47:05;28.90;80.60